| time (UTC) | temp C | wind direction | speed KPH | gust KPH | rain 1hr cm | rain 24hr cm | rain mn cm | humidity % | barometer mb |
| 20260508130031 | 7 | 189 | 3.2 | 6.4 | 0.00 | 0.00 | 0.00 | 84 | 1018.2 |
| 20260508124610 | 6 | 198 | 0.0 | 6.4 | 0.00 | 0.00 | 0.00 | 84 | 1018.2 |
| 20260508123041 | 6 | 190 | 0.0 | 4.8 | 0.00 | 0.00 | 0.00 | 83 | 1018.1 |
| 20260508121529 | 6 | 180 | 0.0 | 3.2 | 0.00 | 0.00 | 0.00 | 83 | 1018.1 |
| 20260508120031 | 6 | 199 | 1.6 | 6.4 | 0.00 | 0.00 | 0.00 | 83 | 1018.0 |
| 20260508113107 | 6 | 180 | 1.6 | 4.8 | 0.00 | 0.00 | 0.00 | 81 | 1017.8 |
| 20260508111538 | 6 | 183 | 3.2 | 6.4 | 0.00 | 0.00 | 0.00 | 81 | 1017.7 |
| 20260508110039 | 6 | 180 | 1.6 | 6.4 | 0.00 | 0.00 | 0.00 | 81 | 1017.6 |
| 20260508104529 | 6 | 188 | 3.2 | 8.0 | 0.00 | 0.00 | 0.00 | 81 | 1017.7 |
| 20260508103030 | 6 | 189 | 3.2 | 8.0 | 0.00 | 0.00 | 0.00 | 80 | 1017.7 |
| 20260508101607 | 6 | 180 | 1.6 | 8.0 | 0.00 | 0.00 | 0.00 | 79 | 1017.7 |
| 20260508100029 | 6 | 182 | 1.6 | 6.4 | 0.00 | 0.00 | 0.00 | 79 | 1017.7 |
| 20260508094645 | 6 | 180 | 1.6 | 6.4 | 0.00 | 0.00 | 0.00 | 79 | 1017.6 |
| 20260508093028 | 6 | 180 | 3.2 | 8.0 | 0.00 | 0.00 | 0.00 | 78 | 1017.5 |
| 20260508091607 | 6 | 189 | 3.2 | 6.4 | 0.00 | 0.00 | 0.00 | 77 | 1017.5 |
| 20260508090030 | 6 | 187 | 3.2 | 6.4 | 0.00 | 0.00 | 0.00 | 76 | 1017.5 |
| 20260508084532 | 7 | 183 | 1.6 | 6.4 | 0.00 | 0.00 | 0.00 | 74 | 1017.5 |
| 20260508083106 | 7 | 192 | 1.6 | 6.4 | 0.00 | 0.00 | 0.00 | 74 | 1017.5 |
| 20260508081530 | 7 | 202 | 3.2 | 6.4 | 0.00 | 0.00 | 0.00 | 73 | 1017.5 |
| 20260508080032 | 7 | 186 | 3.2 | 4.8 | 0.00 | 0.00 | 0.00 | 72 | 1017.4 |
| 20260508074533 | 7 | 182 | 3.2 | 6.4 | 0.00 | 0.00 | 0.00 | 70 | 1017.5 |
| 20260508073033 | 7 | 192 | 1.6 | 8.0 | 0.00 | 0.00 | 0.00 | 70 | 1017.5 |
| 20260508064530 | 8 | 169 | 1.6 | 6.4 | 0.00 | 0.00 | 0.00 | 63 | 1017.4 |
| 20260508063030 | 8 | 135 | 0.0 | 0.0 | 0.00 | 0.00 | 0.00 | 61 | 1017.4 |
| 20260508061530 | 9 | 351 | 1.6 | 8.0 | 0.00 | 0.00 | 0.00 | 59 | 1017.4 |
| 20260508060030 | 10 | 315 | 3.2 | 11.3 | 0.00 | 0.00 | 0.00 | 55 | 1017.4 |
| 20260508054531 | 10 | 180 | 6.4 | 9.7 | 0.00 | 0.00 | 0.00 | 53 | 1017.4 |
| 20260508051530 | 11 | 187 | 4.8 | 11.3 | 0.00 | 0.00 | 0.00 | 50 | 1017.5 |
| 20260508050030 | 10 | 180 | 8.0 | 11.3 | 0.00 | 0.00 | 0.00 | 50 | 1017.5 |
| 20260508044607 | 10 | 180 | 8.0 | 11.3 | 0.00 | 0.00 | 0.00 | 52 | 1017.4 |
| 20260508043029 | 10 | 180 | 4.8 | 9.7 | 0.00 | 0.00 | 0.00 | 52 | 1017.3 |
| 20260508041531 | 10 | 185 | 4.8 | 8.0 | 0.00 | 0.00 | 0.00 | 51 | 1017.3 |
| 20260508040031 | 11 | 189 | 3.2 | 8.0 | 0.00 | 0.00 | 0.00 | 47 | 1017.1 |
| 20260508034606 | 12 | 202 | 1.6 | 4.8 | 0.00 | 0.00 | 0.00 | 41 | 1017.0 |
| 20260508033032 | 13 | 191 | 3.2 | 6.4 | 0.00 | 0.00 | 0.00 | 39 | 1016.8 |
| 20260508031532 | 15 | 202 | 1.6 | 6.4 | 0.00 | 0.00 | 0.00 | 36 | 1016.7 |
| 20260508030033 | 16 | 194 | 1.6 | 6.4 | 0.00 | 0.00 | 0.00 | 31 | 1016.6 |
| 20260508024531 | 17 | 181 | 4.8 | 16.1 | 0.00 | 0.00 | 0.00 | 28 | 1016.5 |
| 20260508023029 | 18 | 183 | 4.8 | 16.1 | 0.00 | 0.00 | 0.00 | 26 | 1016.4 |
| 20260508021529 | 18 | 188 | 4.8 | 19.3 | 0.00 | 0.00 | 0.00 | 26 | 1016.2 |
| 20260508013031 | 20 | 202 | 1.6 | 9.7 | 0.00 | 0.00 | 0.00 | 24 | 1016.1 |
| 20260508011533 | 20 | 187 | 3.2 | 16.1 | 0.00 | 0.00 | 0.00 | 23 | 1016.3 |
| 20260508010031 | 20 | 255 | 8.0 | 22.5 | 0.00 | 0.00 | 0.00 | 23 | 1016.3 |
| 20260508004528 | 21 | 331 | 3.2 | 12.9 | 0.00 | 0.00 | 0.00 | 23 | 1016.2 |
| 20260508003030 | 21 | 13 | 1.6 | 20.9 | 0.00 | 0.00 | 0.00 | 23 | 1016.2 |
| 20260508000034 | 21 | 195 | 8.0 | 27.4 | 0.00 | 0.00 | 0.00 | 23 | 1016.0 |
| 20260507234534 | 22 | 288 | 4.8 | 24.1 | 0.00 | 0.00 | 0.00 | 26 | 1016.0 |
| 20260507233031 | 21 | 263 | 6.4 | 25.7 | 0.00 | 0.00 | 0.00 | 26 | 1016.1 |
| 20260507231607 | 21 | 200 | 11.3 | 25.7 | 0.00 | 0.00 | 0.00 | 27 | 1016.3 |
| 20260507224529 | 22 | 201 | 9.7 | 32.2 | 0.00 | 0.00 | 0.00 | 28 | 1016.5 |
| 20260507223106 | 22 | 329 | 6.4 | 22.5 | 0.00 | 0.00 | 0.00 | 29 | 1016.6 |
| 20260507221532 | 22 | 205 | 4.8 | 14.5 | 0.00 | 0.00 | 0.00 | 30 | 1016.7 |
| 20260507214530 | 22 | 251 | 4.8 | 27.4 | 0.00 | 0.00 | 0.00 | 34 | 1017.0 |
| 20260507213031 | 22 | 292 | 8.0 | 27.4 | 0.00 | 0.00 | 0.00 | 35 | 1017.2 |
| 20260507211537 | 22 | 193 | 8.0 | 29.0 | 0.00 | 0.00 | 0.00 | 36 | 1017.2 |
| 20260507210031 | 22 | 204 | 12.9 | 30.6 | 0.00 | 0.00 | 0.00 | 37 | 1017.2 |
| 20260507204604 | 22 | 181 | 6.4 | 14.5 | 0.00 | 0.00 | 0.00 | 37 | 1017.5 |
| 20260507201532 | 22 | 194 | 8.0 | 25.7 | 0.00 | 0.00 | 0.00 | 38 | 1017.9 |
| 20260507200107 | 22 | 203 | 4.8 | 20.9 | 0.00 | 0.00 | 0.00 | 40 | 1018.0 |
| 20260507194529 | 22 | 259 | 6.4 | 24.1 | 0.00 | 0.00 | 0.00 | 40 | 1018.1 |
| 20260507193031 | 21 | 299 | 4.8 | 19.3 | 0.00 | 0.00 | 0.00 | 42 | 1018.3 |
| 20260507191605 | 20 | 340 | 4.8 | 20.9 | 0.00 | 0.00 | 0.00 | 43 | 1018.5 |
| 20260507190033 | 20 | 345 | 3.2 | 12.9 | 0.00 | 0.00 | 0.00 | 44 | 1018.8 |
| 20260507184532 | 19 | 358 | 6.4 | 12.9 | 0.00 | 0.00 | 0.00 | 46 | 1019.0 |
| 20260507181532 | 19 | 72 | 6.4 | 12.9 | 0.00 | 0.00 | 0.00 | 48 | 1019.1 |
| 20260507174533 | 18 | 135 | 6.4 | 11.3 | 0.00 | 0.00 | 0.00 | 50 | 1019.3 |
| 20260507171630 | 17 | 28 | 3.2 | 12.9 | 0.00 | 0.00 | 0.00 | 55 | 1019.7 |
| 20260507164532 | 16 | 326 | 3.2 | 14.5 | 0.00 | 0.00 | 0.00 | 57 | 1019.8 |
| 20260507163037 | 16 | 350 | 3.2 | 9.7 | 0.00 | 0.00 | 0.00 | 59 | 1019.9 |
| 20260507161532 | 15 | 255 | 3.2 | 12.9 | 0.00 | 0.00 | 0.00 | 61 | 1020.0 |
| 20260507160032 | 15 | 217 | 6.4 | 17.7 | 0.00 | 0.00 | 0.00 | 62 | 1020.1 |
| 20260507154529 | 15 | 320 | 3.2 | 9.7 | 0.00 | 0.00 | 0.00 | 65 | 1020.2 |
| 20260507153032 | 14 | 302 | 1.6 | 11.3 | 0.00 | 0.00 | 0.00 | 69 | 1020.3 |
| 20260507151531 | 13 | 352 | 4.8 | 12.9 | 0.00 | 0.00 | 0.00 | 71 | 1020.4 |
| 20260507150038 | 12 | 5 | 6.4 | 14.5 | 0.00 | 0.00 | 0.00 | 74 | 1020.4 |
| 20260507144607 | 11 | 48 | 3.2 | 14.5 | 0.00 | 0.00 | 0.00 | 82 | 1020.4 |
| 20260507143031 | 10 | 197 | 1.6 | 6.4 | 0.00 | 0.00 | 0.00 | 84 | 1020.4 |
| 20260507141530 | 10 | 178 | 1.6 | 6.4 | 0.00 | 0.00 | 0.00 | 86 | 1020.3 |
| 20260507140107 | 10 | 160 | 3.2 | 6.4 | 0.00 | 0.00 | 0.00 | 86 | 1020.1 |
| 20260507134533 | 8 | 175 | 4.8 | 9.7 | 0.00 | 0.00 | 0.00 | 88 | 1019.9 |
| 20260507133028 | 8 | 189 | 1.6 | 8.0 | 0.00 | 0.00 | 0.00 | 88 | 1019.8 |
| 20260507131607 | 8 | 189 | 1.6 | 4.8 | 0.00 | 0.00 | 0.00 | 86 | 1019.7 |